Time;durP1;ratioP1;P1;durP2;ratioP2;P2;SDS_P1;SDS_P2;PMS_P1;PMS_P2;Temp;Humidity;BMP_temperature;BMP_pressure;BME280_temperature;BME280_humidity;BME280_pressure;Samples;Min_cycle;Max_cycle;Signal;HPM_P1;HPM_P2
2023/07/27 00:00:20;;;;;;;1.67;1.35;;;;;;;;;;5073503;28;20203;-41
2023/07/27 00:03:07;;;;;;;3.15;1.38;;;;;;;;;;5073986;28;20203;-42
2023/07/27 00:05:34;;;;;;;4.10;1.85;;;;;;;;;;5073715;28;20204;-42
2023/07/27 00:08:01;;;;;;;1.95;1.65;;;;;;;;;;5073336;28;20208;-42
2023/07/27 00:10:28;;;;;;;1.73;1.52;;;;;;;;;;5073576;28;20203;-42
2023/07/27 00:12:56;;;;;;;3.45;1.70;;;;;;;;;;5073294;28;20207;-41
2023/07/27 00:15:23;;;;;;;3.70;1.73;;;;;;;;;;5073449;28;20199;-41
2023/07/27 00:17:50;;;;;;;5.05;1.77;;;;;;;;;;5073429;28;20206;-42
2023/07/27 00:20:17;;;;;;;2.25;1.55;;;;;;;;;;5073050;28;20199;-42
2023/07/27 00:22:45;;;;;;;2.55;1.63;;;;;;;;;;5073333;28;20288;-42
2023/07/27 00:25:12;;;;;;;2.80;1.50;;;;;;;;;;5073399;28;20203;-42
2023/07/27 00:27:39;;;;;;;3.05;1.77;;;;;;;;;;5073188;28;20211;-42
2023/07/27 00:30:07;;;;;;;2.70;1.65;;;;;;;;;;5072839;28;20729;-41
2023/07/27 00:32:34;;;;;;;1.77;1.50;;;;;;;;;;5073194;28;20207;-42
2023/07/27 00:35:02;;;;;;;1.83;1.30;;;;;;;;;;5072444;28;20209;-41
2023/07/27 00:37:29;;;;;;;2.50;1.65;;;;;;;;;;5076115;28;20203;-42
2023/07/27 00:39:56;;;;;;;1.98;1.50;;;;;;;;;;5076168;28;20237;-42
2023/07/27 00:42:23;;;;;;;3.53;1.63;;;;;;;;;;5075897;28;20226;-43
2023/07/27 00:44:50;;;;;;;2.95;1.60;;;;;;;;;;5075891;28;20199;-41
2023/07/27 00:47:17;;;;;;;3.92;1.67;;;;;;;;;;5077221;28;20264;-41
2023/07/27 00:49:44;;;;;;;3.05;1.50;;;;;;;;;;5076585;28;20565;-41
2023/07/27 00:52:12;;;;;;;2.80;1.23;;;;;;;;;;5076715;28;20206;-41
2023/07/27 00:54:39;;;;;;;2.53;1.30;;;;;;;;;;5076983;28;20325;-41
2023/07/27 00:57:07;;;;;;;2.45;1.55;;;;;;;;;;5076698;28;20215;-41
2023/07/27 00:59:34;;;;;;;2.03;1.35;;;;;;;;;;5076632;28;20206;-42
2023/07/27 01:02:02;;;;;;;3.22;1.75;;;;;;;;;;5075214;28;20238;-41
2023/07/27 01:04:29;;;;;;;2.50;1.48;;;;;;;;;;5076501;28;20206;-41
2023/07/27 01:06:56;;;;;;;1.98;1.45;;;;;;;;;;5075231;28;20203;-43
2023/07/27 01:09:23;;;;;;;2.58;1.60;;;;;;;;;;5109131;28;20203;-41
2023/07/27 01:11:59;;;;;;;1.92;1.10;;;;;;;;;;5075173;28;20203;-41
2023/07/27 01:14:26;;;;;;;2.78;1.52;;;;;;;;;;5076407;28;20206;-41
2023/07/27 01:17:07;;;;;;;3.22;1.67;;;;;;;;;;5076924;28;20250;-41
2023/07/27 01:19:59;;;;;;;2.20;1.40;;;;;;;;;;5075400;28;20203;-42
2023/07/27 01:22:32;;;;;;;1.90;1.30;;;;;;;;;;5075100;28;20234;-41
2023/07/27 01:25:21;;;;;;;3.03;1.70;;;;;;;;;;5076269;28;20203;-41
2023/07/27 01:27:56;;;;;;;2.60;1.60;;;;;;;;;;5074905;28;20196;-40
2023/07/27 01:30:47;;;;;;;9.38;1.60;;;;;;;;;;5058827;28;20236;-41
2023/07/27 01:33:19;;;;;;;1.90;1.45;;;;;;;;;;5075983;28;20207;-42
2023/07/27 01:36:10;;;;;;;2.15;1.30;;;;;;;;;;5074730;28;20210;-41
2023/07/27 01:38:42;;;;;;;3.35;1.50;;;;;;;;;;5082204;28;20210;-41
2023/07/27 01:41:11;;;;;;;2.00;1.20;;;;;;;;;;5074590;28;20311;-41
2023/07/27 01:43:42;;;;;;;2.63;1.48;;;;;;;;;;5074573;28;20199;-40
2023/07/27 01:46:11;;;;;;;3.65;1.40;;;;;;;;;;5074374;28;20252;-39
2023/07/27 01:48:40;;;;;;;5.07;1.48;;;;;;;;;;5073833;28;20200;-41
2023/07/27 01:51:08;;;;;;;2.47;1.48;;;;;;;;;;5076056;28;20211;-41
2023/07/27 01:53:36;;;;;;;4.70;1.70;;;;;;;;;;5074450;28;20660;-42
2023/07/27 01:56:04;;;;;;;1.77;1.40;;;;;;;;;;5074374;28;20257;-42
2023/07/27 01:58:33;;;;;;;5.43;1.80;;;;;;;;;;5071809;28;20211;-44
2023/07/27 02:01:00;;;;;;;4.35;2.00;;;;;;;;;;5090409;28;20604;-41
2023/07/27 02:03:28;;;;;;;3.85;1.70;;;;;;;;;;5057153;28;20208;-41
2023/07/27 02:05:58;;;;;;;1.98;1.73;;;;;;;;;;5075316;28;20204;-41
2023/07/27 02:08:25;;;;;;;5.32;2.00;;;;;;;;;;5075007;28;20210;-41
2023/07/27 02:11:00;;;;;;;6.10;1.70;;;;;;;;;;5074159;28;20210;-41
2023/07/27 02:13:35;;;;;;;4.13;2.03;;;;;;;;;;5074154;28;20229;-41
2023/07/27 02:16:58;;;;;;;4.03;1.80;;;;;;;;;;5057349;28;20749;-41
2023/07/27 02:19:30;;;;;;;8.63;1.80;;;;;;;;;;5013080;28;20205;-41
2023/07/27 02:21:57;;;;;;;2.38;1.80;;;;;;;;;;4997297;28;20229;-41
2023/07/27 02:24:25;;;;;;;2.05;1.52;;;;;;;;;;5013057;28;20208;-41
2023/07/27 02:26:52;;;;;;;4.57;1.83;;;;;;;;;;4996609;28;20201;-41
2023/07/27 02:29:19;;;;;;;3.80;1.85;;;;;;;;;;5012897;28;20211;-41
2023/07/27 02:31:46;;;;;;;4.07;1.73;;;;;;;;;;5012812;28;20205;-40
2023/07/27 02:34:13;;;;;;;3.33;1.83;;;;;;;;;;5012809;28;20710;-42
2023/07/27 02:36:41;;;;;;;10.02;2.22;;;;;;;;;;5012749;28;20212;-41
2023/07/27 02:39:08;;;;;;;7.95;2.10;;;;;;;;;;5012684;28;20217;-42
2023/07/27 02:41:36;;;;;;;3.38;1.92;;;;;;;;;;4996322;28;20598;-41
2023/07/27 02:44:09;;;;;;;1.85;1.65;;;;;;;;;;4996394;28;20571;-42
2023/07/27 02:46:36;;;;;;;2.17;1.40;;;;;;;;;;4996227;28;20201;-41
2023/07/27 02:49:03;;;;;;;2.33;1.50;;;;;;;;;;5012564;28;20248;-42
2023/07/27 02:51:30;;;;;;;2.33;1.20;;;;;;;;;;4996152;28;20205;-41
2023/07/27 02:53:58;;;;;;;1.70;1.20;;;;;;;;;;5049613;28;20671;-41
2023/07/27 02:56:29;;;;;;;3.70;1.40;;;;;;;;;;5072991;28;20214;-41
2023/07/27 02:58:57;;;;;;;2.00;1.25;;;;;;;;;;5072752;28;20199;-41
2023/07/27 03:01:24;;;;;;;2.05;1.20;;;;;;;;;;5072984;28;20310;-41
2023/07/27 03:03:58;;;;;;;1.35;1.10;;;;;;;;;;5072819;28;20200;-41
2023/07/27 03:06:25;;;;;;;5.90;1.50;;;;;;;;;;5072894;28;20199;-41
2023/07/27 03:08:56;;;;;;;2.90;1.45;;;;;;;;;;5072740;28;20660;-42
2023/07/27 03:11:24;;;;;;;1.95;1.20;;;;;;;;;;5072912;28;20253;-41
2023/07/27 03:13:51;;;;;;;2.08;1.48;;;;;;;;;;5072871;28;20195;-41
2023/07/27 03:16:18;;;;;;;1.67;1.10;;;;;;;;;;5073626;28;20235;-42
2023/07/27 03:18:45;;;;;;;1.45;1.10;;;;;;;;;;5072640;28;20204;-43
2023/07/27 03:21:12;;;;;;;6.35;1.30;;;;;;;;;;5072536;28;20203;-41
2023/07/27 03:23:40;;;;;;;1.50;1.20;;;;;;;;;;5072658;28;20203;-41
2023/07/27 03:26:13;;;;;;;2.10;1.30;;;;;;;;;;5073794;28;20199;-40
2023/07/27 03:28:41;;;;;;;2.22;1.50;;;;;;;;;;5063267;28;20196;-42
2023/07/27 03:31:20;;;;;;;1.63;1.17;;;;;;;;;;5058546;28;20196;-42
2023/07/27 03:33:47;;;;;;;1.13;1.02;;;;;;;;;;5052889;28;20631;-43
2023/07/27 03:36:16;;;;;;;2.33;1.38;;;;;;;;;;5053725;28;20204;-45
2023/07/27 03:38:44;;;;;;;1.55;1.40;;;;;;;;;;5052399;28;20680;-42
2023/07/27 03:41:12;;;;;;;2.33;1.50;;;;;;;;;;5087911;28;20203;-42
2023/07/27 03:43:39;;;;;;;5.65;1.40;;;;;;;;;;5067432;28;20238;-43
2023/07/27 03:46:06;;;;;;;3.28;1.13;;;;;;;;;;5072393;28;20725;-43
2023/07/27 03:48:34;;;;;;;2.95;1.60;;;;;;;;;;5071732;28;20198;-44
2023/07/27 03:51:01;;;;;;;2.50;1.58;;;;;;;;;;5072292;28;20206;-43
2023/07/27 03:53:29;;;;;;;3.00;1.50;;;;;;;;;;5072604;28;20213;-43
2023/07/27 03:55:56;;;;;;;1.23;1.13;;;;;;;;;;5073653;28;20291;-43
2023/07/27 03:58:24;;;;;;;2.45;1.67;;;;;;;;;;5072551;28;20203;-43
2023/07/27 04:00:51;;;;;;;2.33;1.70;;;;;;;;;;5072147;28;20236;-42
2023/07/27 04:03:18;;;;;;;4.30;2.00;;;;;;;;;;5070627;28;20235;-42
2023/07/27 04:05:45;;;;;;;2.10;1.58;;;;;;;;;;5068075;28;20806;-43
2023/07/27 04:08:13;;;;;;;3.78;1.70;;;;;;;;;;5072438;28;20234;-42
2023/07/27 04:10:40;;;;;;;3.78;1.90;;;;;;;;;;5070799;28;20710;-42
2023/07/27 04:13:07;;;;;;;7.47;1.98;;;;;;;;;;5071225;28;20234;-43
2023/07/27 04:15:34;;;;;;;1.98;1.40;;;;;;;;;;5071045;28;20222;-43
2023/07/27 04:18:02;;;;;;;1.50;1.40;;;;;;;;;;5070779;28;20288;-42
2023/07/27 04:20:29;;;;;;;5.45;1.40;;;;;;;;;;5072497;28;20289;-43
2023/07/27 04:22:56;;;;;;;3.38;1.80;;;;;;;;;;5070568;28;20269;-42
2023/07/27 04:25:23;;;;;;;5.95;1.80;;;;;;;;;;5072680;28;20223;-41
2023/07/27 04:27:51;;;;;;;2.35;1.77;;;;;;;;;;5072232;28;20227;-41
2023/07/27 04:30:18;;;;;;;3.08;1.77;;;;;;;;;;5037689;28;20219;-42
2023/07/27 04:32:46;;;;;;;2.47;1.70;;;;;;;;;;5070965;28;20227;-43
2023/07/27 04:35:13;;;;;;;2.03;1.77;;;;;;;;;;5072605;28;20264;-42
2023/07/27 04:37:40;;;;;;;4.30;2.33;;;;;;;;;;5071169;28;20234;-42
2023/07/27 04:40:07;;;;;;;3.17;2.20;;;;;;;;;;5066490;28;20247;-42
2023/07/27 04:42:35;;;;;;;6.60;2.28;;;;;;;;;;5071831;28;20235;-43
2023/07/27 04:45:03;;;;;;;5.68;2.13;;;;;;;;;;5072143;28;20261;-43
2023/07/27 04:47:30;;;;;;;3.03;2.03;;;;;;;;;;5071180;28;20555;-42
2023/07/27 04:49:57;;;;;;;3.25;2.30;;;;;;;;;;5071543;28;20216;-43
2023/07/27 04:52:25;;;;;;;8.80;2.45;;;;;;;;;;5068791;28;20710;-44
2023/07/27 04:54:51;;;;;;;3.13;2.42;;;;;;;;;;5069958;28;20219;-43
2023/07/27 04:57:19;;;;;;;3.33;2.25;;;;;;;;;;5072402;28;20281;-42
2023/07/27 04:59:46;;;;;;;2.97;2.33;;;;;;;;;;5072116;28;20223;-42
2023/07/27 05:02:14;;;;;;;2.30;1.92;;;;;;;;;;5072126;28;20288;-42
2023/07/27 05:04:41;;;;;;;9.55;2.83;;;;;;;;;;5072137;28;20223;-42
2023/07/27 05:07:08;;;;;;;4.07;2.00;;;;;;;;;;5071279;28;20223;-42
2023/07/27 05:09:35;;;;;;;3.50;2.10;;;;;;;;;;5070122;28;20319;-40
2023/07/27 05:12:03;;;;;;;3.25;2.03;;;;;;;;;;5071725;28;20219;-43
2023/07/27 05:14:29;;;;;;;4.35;1.98;;;;;;;;;;5072011;28;20219;-43
2023/07/27 05:16:57;;;;;;;2.28;2.08;;;;;;;;;;5059615;28;20236;-42
2023/07/27 05:19:24;;;;;;;3.05;2.00;;;;;;;;;;5066247;28;20215;-41
2023/07/27 05:21:51;;;;;;;3.17;1.92;;;;;;;;;;5071946;28;20727;-43
2023/07/27 05:24:18;;;;;;;4.22;1.98;;;;;;;;;;5074944;28;20199;-42
2023/07/27 05:26:45;;;;;;;3.90;2.10;;;;;;;;;;5076225;28;20211;-42
2023/07/27 05:29:12;;;;;;;3.97;2.00;;;;;;;;;;5076221;28;20214;-43
2023/07/27 05:31:40;;;;;;;3.63;2.28;;;;;;;;;;5075991;28;20200;-42
2023/07/27 05:34:08;;;;;;;2.08;1.83;;;;;;;;;;5076494;28;20203;-43
2023/07/27 05:36:36;;;;;;;3.15;2.20;;;;;;;;;;5076332;28;20207;-44
2023/07/27 05:39:03;;;;;;;2.08;1.63;;;;;;;;;;5075904;28;20219;-44
2023/07/27 05:41:31;;;;;;;6.10;2.40;;;;;;;;;;5075818;28;20208;-44
2023/07/27 05:43:58;;;;;;;4.18;2.15;;;;;;;;;;5075980;28;20235;-43
2023/07/27 05:46:25;;;;;;;3.92;2.28;;;;;;;;;;5075726;28;20207;-43
2023/07/27 05:48:52;;;;;;;5.45;2.55;;;;;;;;;;5075708;28;20211;-42
2023/07/27 05:51:20;;;;;;;3.75;2.30;;;;;;;;;;5075846;28;20208;-42
2023/07/27 05:53:47;;;;;;;2.65;1.98;;;;;;;;;;5075696;28;20207;-40
2023/07/27 05:56:14;;;;;;;3.70;1.98;;;;;;;;;;5075615;28;20534;-44
2023/07/27 05:58:41;;;;;;;5.43;2.10;;;;;;;;;;5075588;28;20619;-43
2023/07/27 06:01:09;;;;;;;2.45;1.80;;;;;;;;;;5072642;28;20211;-43
2023/07/27 06:03:36;;;;;;;2.65;1.60;;;;;;;;;;5075399;28;20314;-42
2023/07/27 06:06:03;;;;;;;3.80;2.00;;;;;;;;;;5076092;28;20199;-42
2023/07/27 06:08:30;;;;;;;2.80;2.15;;;;;;;;;;5075676;28;20211;-43
2023/07/27 06:11:06;;;;;;;7.43;2.10;;;;;;;;;;5075247;28;20563;-42
2023/07/27 06:13:33;;;;;;;4.18;1.58;;;;;;;;;;5075551;28;20241;-42
2023/07/27 06:16:02;;;;;;;3.17;1.73;;;;;;;;;;5075050;28;20223;-43
2023/07/27 06:18:29;;;;;;;2.45;2.20;;;;;;;;;;5075155;28;20566;-43
2023/07/27 06:20:57;;;;;;;2.08;1.63;;;;;;;;;;5075060;28;20214;-44
2023/07/27 06:23:24;;;;;;;4.95;1.88;;;;;;;;;;5075110;28;20300;-42
2023/07/27 06:25:51;;;;;;;1.85;1.63;;;;;;;;;;5075165;28;20215;-42
2023/07/27 06:28:18;;;;;;;1.55;1.45;;;;;;;;;;5075289;28;20546;-43
2023/07/27 06:30:46;;;;;;;2.45;1.20;;;;;;;;;;5056687;28;20210;-43
2023/07/27 06:33:14;;;;;;;1.40;1.30;;;;;;;;;;5074324;28;20254;-41
2023/07/27 06:35:42;;;;;;;2.42;1.65;;;;;;;;;;5074671;28;20732;-43
2023/07/27 06:38:09;;;;;;;4.88;1.40;;;;;;;;;;5074626;28;20223;-43
2023/07/27 06:40:36;;;;;;;2.00;1.10;;;;;;;;;;5074647;28;20203;-43
2023/07/27 06:43:03;;;;;;;1.73;1.30;;;;;;;;;;5071217;28;20610;-45
2023/07/27 06:45:31;;;;;;;1.80;1.40;;;;;;;;;;5074035;28;20603;-44
2023/07/27 06:47:58;;;;;;;1.90;1.40;;;;;;;;;;5074323;28;20256;-45
2023/07/27 06:50:26;;;;;;;1.52;1.42;;;;;;;;;;5072156;28;20206;-43
2023/07/27 06:52:53;;;;;;;1.83;1.60;;;;;;;;;;5074627;28;20207;-43
2023/07/27 06:55:20;;;;;;;4.38;1.65;;;;;;;;;;5074580;28;20203;-43
2023/07/27 06:57:47;;;;;;;1.20;1.08;;;;;;;;;;5074517;28;20273;-43
2023/07/27 07:00:14;;;;;;;1.52;1.20;;;;;;;;;;5074308;28;20210;-43
2023/07/27 07:02:41;;;;;;;2.65;1.40;;;;;;;;;;5074148;28;20288;-43
2023/07/27 07:05:09;;;;;;;2.13;0.90;;;;;;;;;;5074485;28;20208;-43
2023/07/27 07:07:36;;;;;;;3.95;1.55;;;;;;;;;;5074191;28;20226;-42
2023/07/27 07:10:04;;;;;;;1.20;0.90;;;;;;;;;;5074238;28;20210;-42
2023/07/27 07:12:31;;;;;;;2.85;0.93;;;;;;;;;;5074335;28;20207;-41
2023/07/27 07:14:58;;;;;;;2.67;1.08;;;;;;;;;;5074162;28;20206;-44
2023/07/27 07:17:25;;;;;;;2.25;1.10;;;;;;;;;;5073893;28;20709;-43
2023/07/27 07:19:53;;;;;;;1.85;0.85;;;;;;;;;;5073924;28;20737;-45
2023/07/27 07:22:20;;;;;;;2.67;1.45;;;;;;;;;;5074123;28;20207;-44
2023/07/27 07:24:47;;;;;;;1.73;1.10;;;;;;;;;;5073966;28;20203;-43
2023/07/27 07:27:14;;;;;;;1.10;1.00;;;;;;;;;;5074119;28;20282;-43
2023/07/27 07:29:42;;;;;;;1.40;1.10;;;;;;;;;;5074003;28;20226;-43
2023/07/27 07:32:08;;;;;;;0.80;0.70;;;;;;;;;;5074358;28;20199;-43
2023/07/27 07:34:36;;;;;;;1.35;0.90;;;;;;;;;;5073728;28;20211;-44
2023/07/27 07:37:03;;;;;;;2.78;1.25;;;;;;;;;;5066502;28;20665;-44
2023/07/27 07:39:30;;;;;;;2.10;1.05;;;;;;;;;;5071616;28;20227;-42
2023/07/27 07:41:59;;;;;;;1.73;1.00;;;;;;;;;;5073530;28;20203;-43
2023/07/27 07:44:26;;;;;;;1.10;0.70;;;;;;;;;;5072778;28;20737;-43
2023/07/27 07:46:53;;;;;;;3.70;0.68;;;;;;;;;;5073606;28;20201;-44
2023/07/27 07:49:25;;;;;;;1.75;0.90;;;;;;;;;;5073907;28;20207;-44
2023/07/27 07:51:52;;;;;;;1.52;0.85;;;;;;;;;;5073496;28;20274;-43
2023/07/27 07:54:20;;;;;;;3.35;0.98;;;;;;;;;;5072851;28;20690;-43
2023/07/27 07:56:47;;;;;;;4.20;0.80;;;;;;;;;;5073434;28;20226;-42
2023/07/27 07:59:15;;;;;;;1.55;0.80;;;;;;;;;;5072761;28;20648;-44
2023/07/27 08:01:42;;;;;;;1.58;1.08;;;;;;;;;;5073682;28;20203;-43
2023/07/27 08:04:09;;;;;;;1.48;0.75;;;;;;;;;;5073612;28;20223;-41
2023/07/27 08:06:37;;;;;;;2.17;0.90;;;;;;;;;;5073599;28;20207;-44
2023/07/27 08:09:05;;;;;;;3.35;1.27;;;;;;;;;;5072809;28;20560;-44
2023/07/27 08:11:33;;;;;;;2.88;0.90;;;;;;;;;;5073583;28;20207;-43
2023/07/27 08:14:02;;;;;;;1.98;0.80;;;;;;;;;;5073445;28;20275;-43
2023/07/27 08:16:29;;;;;;;1.30;0.80;;;;;;;;;;5073298;28;20258;-43
2023/07/27 08:18:57;;;;;;;2.47;0.60;;;;;;;;;;5071959;28;20206;-43
2023/07/27 08:21:25;;;;;;;1.95;1.02;;;;;;;;;;5072688;28;20203;-43
2023/07/27 08:23:52;;;;;;;2.72;0.82;;;;;;;;;;5073191;28;20219;-43
2023/07/27 08:26:20;;;;;;;1.55;0.85;;;;;;;;;;5073049;28;20203;-44
2023/07/27 08:28:47;;;;;;;1.02;0.60;;;;;;;;;;5073127;28;20663;-44
2023/07/27 08:31:14;;;;;;;1.08;0.70;;;;;;;;;;5073316;28;20230;-44
2023/07/27 08:33:42;;;;;;;3.63;0.80;;;;;;;;;;5073082;28;20199;-44
2023/07/27 08:36:09;;;;;;;1.13;0.80;;;;;;;;;;5072875;28;20196;-45
2023/07/27 08:38:37;;;;;;;1.65;0.60;;;;;;;;;;5073449;28;20217;-44
2023/07/27 08:41:03;;;;;;;1.13;0.90;;;;;;;;;;5072949;28;20199;-44
2023/07/27 08:43:31;;;;;;;2.92;0.88;;;;;;;;;;5072847;28;20239;-44
2023/07/27 08:45:58;;;;;;;1.00;0.77;;;;;;;;;;5071640;28;20282;-44
2023/07/27 08:48:27;;;;;;;1.83;0.82;;;;;;;;;;5072992;28;20203;-44
2023/07/27 08:50:57;;;;;;;6.13;1.08;;;;;;;;;;5072847;28;20196;-44
2023/07/27 08:53:25;;;;;;;0.90;0.57;;;;;;;;;;5072659;28;20260;-47
2023/07/27 08:55:52;;;;;;;0.80;0.80;;;;;;;;;;5068573;28;20296;-46
2023/07/27 08:58:20;;;;;;;2.05;0.80;;;;;;;;;;5067107;28;20203;-47
2023/07/27 09:00:47;;;;;;;4.07;1.33;;;;;;;;;;5074840;28;20230;-46
2023/07/27 09:03:14;;;;;;;5.18;1.10;;;;;;;;;;5075309;28;20232;-49
2023/07/27 09:05:45;;;;;;;0.65;0.55;;;;;;;;;;5075404;28;20209;-47
2023/07/27 09:08:14;;;;;;;1.08;0.90;;;;;;;;;;5074673;28;20196;-47
2023/07/27 09:10:43;;;;;;;1.30;0.80;;;;;;;;;;5075233;28;20645;-48
2023/07/27 09:13:10;;;;;;;1.58;0.90;;;;;;;;;;5075058;28;20265;-47
2023/07/27 09:15:42;;;;;;;1.42;0.77;;;;;;;;;;5074203;28;20219;-46
2023/07/27 09:18:11;;;;;;;2.38;0.88;;;;;;;;;;5070700;28;20206;-47
2023/07/27 09:20:42;;;;;;;1.27;0.80;;;;;;;;;;5075127;28;20199;-47
2023/07/27 09:23:18;;;;;;;2.38;1.05;;;;;;;;;;5073796;28;20203;-49
2023/07/27 09:25:55;;;;;;;1.52;0.90;;;;;;;;;;5071030;28;20655;-46
2023/07/27 09:28:27;;;;;;;1.58;0.75;;;;;;;;;;5072723;28;20188;-46
2023/07/27 09:31:02;;;;;;;1.35;0.80;;;;;;;;;;5074921;28;20190;-48
2023/07/27 09:33:31;;;;;;;3.63;0.70;;;;;;;;;;5072011;28;20274;-47
2023/07/27 09:35:58;;;;;;;1.90;0.63;;;;;;;;;;5074378;28;20199;-47
2023/07/27 09:38:27;;;;;;;1.50;0.93;;;;;;;;;;5073086;28;20211;-45
2023/07/27 09:40:54;;;;;;;1.00;0.80;;;;;;;;;;5074449;28;20589;-44
2023/07/27 09:43:24;;;;;;;1.15;0.90;;;;;;;;;;5076768;28;20223;-45
2023/07/27 09:45:58;;;;;;;1.77;0.85;;;;;;;;;;5071214;28;20192;-47
2023/07/27 09:48:28;;;;;;;2.03;0.88;;;;;;;;;;5075240;28;20213;-46
2023/07/27 09:50:59;;;;;;;1.20;0.75;;;;;;;;;;5075183;28;20550;-48
2023/07/27 09:53:30;;;;;;;2.45;0.70;;;;;;;;;;5071713;28;20196;-46
2023/07/27 09:55:58;;;;;;;1.55;0.90;;;;;;;;;;5074771;28;20186;-46
2023/07/27 09:58:27;;;;;;;2.60;0.77;;;;;;;;;;5068873;28;20287;-46
2023/07/27 10:00:55;;;;;;;1.95;0.80;;;;;;;;;;5074638;28;20217;-47
2023/07/27 10:03:22;;;;;;;0.95;0.75;;;;;;;;;;5073345;28;20230;-47
2023/07/27 10:05:49;;;;;;;2.05;1.20;;;;;;;;;;5071781;28;20198;-46
2023/07/27 10:08:17;;;;;;;2.42;0.88;;;;;;;;;;5037403;28;20207;-45
2023/07/27 10:10:46;;;;;;;1.70;0.80;;;;;;;;;;5073772;28;20214;-47
2023/07/27 10:13:22;;;;;;;1.35;0.80;;;;;;;;;;5073295;28;20191;-46
2023/07/27 10:15:51;;;;;;;1.17;0.90;;;;;;;;;;5068270;28;20258;-46
2023/07/27 10:18:23;;;;;;;2.92;1.00;;;;;;;;;;5073908;28;20196;-49
2023/07/27 10:20:51;;;;;;;1.60;0.90;;;;;;;;;;5074303;28;20520;-47
2023/07/27 10:23:26;;;;;;;4.13;0.82;;;;;;;;;;5073435;28;20196;-46
2023/07/27 10:25:54;;;;;;;2.28;1.15;;;;;;;;;;5074043;28;20565;-47
2023/07/27 10:28:38;;;;;;;3.42;1.13;;;;;;;;;;5073230;28;20201;-47
2023/07/27 10:31:24;;;;;;;1.20;0.77;;;;;;;;;;5073438;28;20199;-47
2023/07/27 10:34:07;;;;;;;1.05;0.82;;;;;;;;;;5074138;28;20192;-46
2023/07/27 10:36:56;;;;;;;2.15;1.05;;;;;;;;;;5072054;28;20203;-46
2023/07/27 10:39:26;;;;;;;1.30;0.82;;;;;;;;;;5073706;28;20188;-45
2023/07/27 10:42:01;;;;;;;2.53;1.17;;;;;;;;;;5070759;28;20208;-45
2023/07/27 10:44:57;;;;;;;1.48;0.90;;;;;;;;;;5063104;28;20208;-45
2023/07/27 10:47:38;;;;;;;1.77;0.80;;;;;;;;;;5066691;28;20203;-46
2023/07/27 10:50:06;;;;;;;3.85;1.15;;;;;;;;;;5070888;28;20203;-45
2023/07/27 10:52:34;;;;;;;1.65;0.93;;;;;;;;;;5069715;28;20203;-46
2023/07/27 10:55:04;;;;;;;1.77;0.90;;;;;;;;;;5073240;28;20202;-46
2023/07/27 10:57:32;;;;;;;1.77;0.90;;;;;;;;;;5074001;28;20204;-46
2023/07/27 11:00:00;;;;;;;1.23;1.00;;;;;;;;;;5074078;28;20567;-44
2023/07/27 11:02:29;;;;;;;1.50;1.00;;;;;;;;;;5074273;28;20652;-45
2023/07/27 11:04:59;;;;;;;1.25;0.98;;;;;;;;;;5073932;28;20226;-45
2023/07/27 11:07:27;;;;;;;1.33;0.80;;;;;;;;;;5067222;28;20207;-47
2023/07/27 11:09:55;;;;;;;1.92;0.68;;;;;;;;;;5074039;28;20200;-46
2023/07/27 11:12:22;;;;;;;0.82;0.60;;;;;;;;;;5073959;28;20195;-49
2023/07/27 11:14:53;;;;;;;0.95;0.75;;;;;;;;;;5073637;28;20207;-45
2023/07/27 11:17:20;;;;;;;1.20;0.73;;;;;;;;;;5073718;28;20259;-45
2023/07/27 11:19:48;;;;;;;1.08;0.70;;;;;;;;;;5073683;28;20257;-48
2023/07/27 11:22:16;;;;;;;1.00;0.60;;;;;;;;;;5065704;28;20231;-46
2023/07/27 11:24:43;;;;;;;1.10;0.90;;;;;;;;;;5063587;28;20645;-51
2023/07/27 11:27:10;;;;;;;1.67;0.77;;;;;;;;;;5068971;28;20206;-48
2023/07/27 11:29:39;;;;;;;1.50;0.98;;;;;;;;;;5073319;28;20211;-49
2023/07/27 11:32:07;;;;;;;1.23;0.77;;;;;;;;;;5073026;28;20688;-48
2023/07/27 11:34:34;;;;;;;2.38;0.98;;;;;;;;;;5073115;28;20241;-48
2023/07/27 11:37:01;;;;;;;1.55;0.93;;;;;;;;;;5072591;28;20209;-48
2023/07/27 11:39:29;;;;;;;1.10;0.70;;;;;;;;;;5072627;28;20682;-46
2023/07/27 11:41:57;;;;;;;0.85;0.70;;;;;;;;;;5071027;28;20222;-45
2023/07/27 11:44:24;;;;;;;0.90;0.73;;;;;;;;;;5070851;28;20256;-45
2023/07/27 11:46:52;;;;;;;0.80;0.60;;;;;;;;;;5072523;28;20709;-46
2023/07/27 11:49:21;;;;;;;2.30;0.80;;;;;;;;;;5073090;28;20199;-50
2023/07/27 11:51:48;;;;;;;1.08;0.70;;;;;;;;;;5066055;28;20210;-47
2023/07/27 11:54:23;;;;;;;1.73;0.80;;;;;;;;;;5061031;28;20551;-47
2023/07/27 11:56:55;;;;;;;1.00;0.60;;;;;;;;;;5068977;28;20227;-46
2023/07/27 11:59:23;;;;;;;1.15;0.88;;;;;;;;;;5069162;28;20659;-47
2023/07/27 12:01:52;;;;;;;0.82;0.80;;;;;;;;;;5072040;28;20211;-47
2023/07/27 12:04:20;;;;;;;3.15;0.95;;;;;;;;;;5070100;28;20227;-46
2023/07/27 12:06:48;;;;;;;2.00;0.60;;;;;;;;;;5070505;28;20571;-46
2023/07/27 12:09:15;;;;;;;1.75;1.10;;;;;;;;;;5068914;28;20215;-47
2023/07/27 12:11:43;;;;;;;2.10;0.80;;;;;;;;;;5071046;28;20273;-46
2023/07/27 12:14:11;;;;;;;5.63;1.02;;;;;;;;;;5071765;28;20223;-47
2023/07/27 12:16:42;;;;;;;0.90;0.73;;;;;;;;;;5071530;28;20573;-46
2023/07/27 12:19:12;;;;;;;1.02;0.60;;;;;;;;;;5069348;28;20218;-47
2023/07/27 12:21:42;;;;;;;1.20;0.88;;;;;;;;;;5070069;28;20223;-48
2023/07/27 12:24:11;;;;;;;1.52;0.90;;;;;;;;;;5070983;28;20234;-49
2023/07/27 12:26:40;;;;;;;1.48;0.98;;;;;;;;;;5070309;28;20247;-46
2023/07/27 12:29:11;;;;;;;1.52;0.70;;;;;;;;;;5071137;28;20226;-46
2023/07/27 12:31:41;;;;;;;1.27;0.93;;;;;;;;;;5072273;28;20214;-48
2023/07/27 12:34:11;;;;;;;1.92;1.02;;;;;;;;;;5071960;28;20703;-49
2023/07/27 12:36:42;;;;;;;1.52;0.80;;;;;;;;;;5097111;28;20216;-46
2023/07/27 12:39:29;;;;;;;2.65;1.00;;;;;;;;;;5071691;28;20227;-47
2023/07/27 12:41:56;;;;;;;2.80;0.93;;;;;;;;;;5075541;28;20222;-46
2023/07/27 12:44:26;;;;;;;2.20;0.90;;;;;;;;;;5075682;28;20585;-47
2023/07/27 12:46:53;;;;;;;1.38;0.80;;;;;;;;;;5075262;28;20234;-46
2023/07/27 12:49:20;;;;;;;1.88;1.05;;;;;;;;;;5068543;28;20227;-47
2023/07/27 12:51:47;;;;;;;2.28;0.95;;;;;;;;;;5062533;28;20561;-47
2023/07/27 12:54:15;;;;;;;1.27;0.95;;;;;;;;;;5074743;28;20238;-46
2023/07/27 12:56:42;;;;;;;1.65;1.00;;;;;;;;;;5073917;28;20223;-47
2023/07/27 12:59:09;;;;;;;1.40;0.85;;;;;;;;;;5072397;28;20224;-47
2023/07/27 13:01:37;;;;;;;2.78;1.23;;;;;;;;;;5066976;28;20216;-46
2023/07/27 13:04:04;;;;;;;2.28;0.90;;;;;;;;;;5075280;28;20215;-46
2023/07/27 13:06:32;;;;;;;1.50;1.20;;;;;;;;;;5068677;28;20219;-44
2023/07/27 13:09:01;;;;;;;1.55;1.10;;;;;;;;;;5069602;28;20227;-47
2023/07/27 13:11:28;;;;;;;1.63;1.20;;;;;;;;;;5073980;28;20753;-47
2023/07/27 13:13:56;;;;;;;1.75;0.90;;;;;;;;;;5072334;28;20277;-47
2023/07/27 13:16:23;;;;;;;1.20;0.93;;;;;;;;;;5072353;28;20699;-47
2023/07/27 13:18:50;;;;;;;2.03;1.13;;;;;;;;;;5066659;28;20212;-45
2023/07/27 13:21:17;;;;;;;0.93;0.77;;;;;;;;;;5054828;28;20223;-48
2023/07/27 13:23:46;;;;;;;3.53;1.15;;;;;;;;;;5061786;28;20768;-48
2023/07/27 13:26:13;;;;;;;0.98;0.75;;;;;;;;;;5075057;28;20259;-47
2023/07/27 13:28:40;;;;;;;1.40;0.85;;;;;;;;;;5075026;28;20226;-43
2023/07/27 13:31:11;;;;;;;1.35;0.70;;;;;;;;;;5074933;28;20216;-44
2023/07/27 13:33:38;;;;;;;1.85;1.13;;;;;;;;;;5075232;28;20265;-46
2023/07/27 13:36:05;;;;;;;1.30;0.90;;;;;;;;;;5073552;28;20702;-45
2023/07/27 13:38:33;;;;;;;2.53;0.98;;;;;;;;;;5074346;28;20218;-44
2023/07/27 13:41:00;;;;;;;1.40;1.10;;;;;;;;;;5075347;28;20699;-48
2023/07/27 13:43:27;;;;;;;1.08;0.82;;;;;;;;;;5073867;28;20734;-44
2023/07/27 13:45:54;;;;;;;1.00;0.82;;;;;;;;;;5073912;28;20258;-44
2023/07/27 13:48:22;;;;;;;1.05;0.80;;;;;;;;;;5075305;28;20231;-44
2023/07/27 13:50:49;;;;;;;2.00;0.85;;;;;;;;;;5075187;28;20223;-46
2023/07/27 13:53:19;;;;;;;1.92;0.90;;;;;;;;;;5075016;28;20226;-45
2023/07/27 13:55:50;;;;;;;1.30;1.00;;;;;;;;;;5071349;28;20215;-45
2023/07/27 13:58:17;;;;;;;2.55;1.17;;;;;;;;;;5074793;28;20220;-45
2023/07/27 14:00:45;;;;;;;2.33;1.10;;;;;;;;;;5074987;28;20333;-44
2023/07/27 14:03:13;;;;;;;1.55;1.00;;;;;;;;;;5074805;28;20215;-46
2023/07/27 14:05:41;;;;;;;0.80;0.70;;;;;;;;;;5072392;28;20703;-46
2023/07/27 14:08:08;;;;;;;1.02;0.70;;;;;;;;;;5073547;28;20240;-44
2023/07/27 14:10:35;;;;;;;0.95;0.70;;;;;;;;;;5073791;28;20222;-44
2023/07/27 14:13:02;;;;;;;3.28;1.08;;;;;;;;;;5073571;28;20225;-44
2023/07/27 14:15:29;;;;;;;0.82;0.77;;;;;;;;;;5073493;28;20220;-46
2023/07/27 14:17:59;;;;;;;2.00;0.95;;;;;;;;;;5074350;28;20227;-45
2023/07/27 14:20:26;;;;;;;1.23;0.95;;;;;;;;;;5072961;28;20246;-45
2023/07/27 14:22:54;;;;;;;1.63;0.98;;;;;;;;;;5074154;28;20219;-45
2023/07/27 14:25:21;;;;;;;4.95;0.70;;;;;;;;;;5073153;28;20293;-45
2023/07/27 14:27:48;;;;;;;0.80;0.75;;;;;;;;;;5073778;28;20215;-44
2023/07/27 14:30:25;;;;;;;1.55;1.10;;;;;;;;;;5070595;28;20246;-45
2023/07/27 14:32:52;;;;;;;1.77;0.90;;;;;;;;;;5073900;28;20235;-44
2023/07/27 14:35:19;;;;;;;2.15;0.90;;;;;;;;;;5073509;28;20273;-44
2023/07/27 14:37:50;;;;;;;1.50;1.02;;;;;;;;;;5070446;28;20269;-44
2023/07/27 14:40:17;;;;;;;1.40;0.93;;;;;;;;;;5073850;28;20219;-45
2023/07/27 14:42:47;;;;;;;1.15;0.75;;;;;;;;;;5074574;28;20223;-45
2023/07/27 14:45:14;;;;;;;1.80;1.00;;;;;;;;;;5074171;28;20219;-45
2023/07/27 14:47:41;;;;;;;1.92;0.98;;;;;;;;;;5074246;28;20226;-44
2023/07/27 14:50:09;;;;;;;1.35;0.95;;;;;;;;;;5074294;28;20220;-46
2023/07/27 14:52:39;;;;;;;1.25;0.88;;;;;;;;;;5073770;28;20219;-47